sensor_id;sensor_type;location;lat;lon;timestamp;P1;durP1;ratioP1;P2;durP2;ratioP2
16975;SDS011;8604;48.148;-1.786;2024-02-04T00:02:06;9.77;;;8.33;;
16975;SDS011;8604;48.148;-1.786;2024-02-04T00:04:36;14.73;;;11.23;;
16975;SDS011;8604;48.148;-1.786;2024-02-04T00:07:04;14.03;;;10.80;;
16975;SDS011;8604;48.148;-1.786;2024-02-04T00:09:33;12.37;;;9.90;;
16975;SDS011;8604;48.148;-1.786;2024-02-04T00:12:03;12.13;;;10.07;;
16975;SDS011;8604;48.148;-1.786;2024-02-04T00:14:32;11.47;;;9.43;;
16975;SDS011;8604;48.148;-1.786;2024-02-04T00:17:02;12.27;;;9.47;;
16975;SDS011;8604;48.148;-1.786;2024-02-04T00:19:31;12.97;;;10.67;;
16975;SDS011;8604;48.148;-1.786;2024-02-04T00:22:00;11.13;;;9.10;;
16975;SDS011;8604;48.148;-1.786;2024-02-04T00:24:29;10.27;;;8.50;;
16975;SDS011;8604;48.148;-1.786;2024-02-04T00:26:58;9.77;;;8.17;;
16975;SDS011;8604;48.148;-1.786;2024-02-04T00:29:26;9.23;;;8.23;;
16975;SDS011;8604;48.148;-1.786;2024-02-04T00:31:54;9.90;;;8.33;;
16975;SDS011;8604;48.148;-1.786;2024-02-04T00:34:24;10.53;;;9.37;;
16975;SDS011;8604;48.148;-1.786;2024-02-04T00:36:53;11.77;;;9.73;;
16975;SDS011;8604;48.148;-1.786;2024-02-04T00:39:21;10.73;;;9.03;;
16975;SDS011;8604;48.148;-1.786;2024-02-04T00:41:49;12.33;;;10.17;;
16975;SDS011;8604;48.148;-1.786;2024-02-04T00:44:18;15.90;;;12.53;;
16975;SDS011;8604;48.148;-1.786;2024-02-04T00:46:46;13.63;;;11.30;;
16975;SDS011;8604;48.148;-1.786;2024-02-04T00:49:14;13.60;;;10.83;;
16975;SDS011;8604;48.148;-1.786;2024-02-04T00:51:44;12.80;;;9.83;;
16975;SDS011;8604;48.148;-1.786;2024-02-04T00:54:13;12.97;;;9.70;;
16975;SDS011;8604;48.148;-1.786;2024-02-04T00:56:41;12.00;;;9.23;;
16975;SDS011;8604;48.148;-1.786;2024-02-04T00:59:09;12.27;;;9.30;;
16975;SDS011;8604;48.148;-1.786;2024-02-04T01:01:38;12.70;;;9.60;;
16975;SDS011;8604;48.148;-1.786;2024-02-04T01:04:07;12.37;;;9.73;;
16975;SDS011;8604;48.148;-1.786;2024-02-04T01:06:35;11.10;;;8.77;;
16975;SDS011;8604;48.148;-1.786;2024-02-04T01:09:23;12.77;;;9.10;;
16975;SDS011;8604;48.148;-1.786;2024-02-04T01:11:52;11.23;;;9.50;;
16975;SDS011;8604;48.148;-1.786;2024-02-04T01:14:20;10.77;;;8.43;;
16975;SDS011;8604;48.148;-1.786;2024-02-04T01:16:48;9.97;;;8.63;;
16975;SDS011;8604;48.148;-1.786;2024-02-04T01:19:17;10.97;;;8.70;;
16975;SDS011;8604;48.148;-1.786;2024-02-04T01:21:45;11.17;;;8.83;;
16975;SDS011;8604;48.148;-1.786;2024-02-04T01:24:14;10.83;;;8.87;;
16975;SDS011;8604;48.148;-1.786;2024-02-04T01:26:43;10.17;;;8.93;;
16975;SDS011;8604;48.148;-1.786;2024-02-04T01:29:13;10.83;;;8.47;;
16975;SDS011;8604;48.148;-1.786;2024-02-04T01:31:41;11.53;;;9.43;;
16975;SDS011;8604;48.148;-1.786;2024-02-04T01:34:09;11.23;;;9.83;;
16975;SDS011;8604;48.148;-1.786;2024-02-04T01:36:38;12.57;;;8.93;;
16975;SDS011;8604;48.148;-1.786;2024-02-04T01:39:07;12.10;;;9.80;;
16975;SDS011;8604;48.148;-1.786;2024-02-04T01:41:37;12.50;;;9.23;;
16975;SDS011;8604;48.148;-1.786;2024-02-04T01:44:07;12.97;;;9.27;;
16975;SDS011;8604;48.148;-1.786;2024-02-04T01:46:37;9.93;;;8.47;;
16975;SDS011;8604;48.148;-1.786;2024-02-04T01:49:06;10.70;;;8.70;;
16975;SDS011;8604;48.148;-1.786;2024-02-04T01:51:34;10.67;;;7.87;;
16975;SDS011;8604;48.148;-1.786;2024-02-04T01:54:03;9.47;;;7.80;;
16975;SDS011;8604;48.148;-1.786;2024-02-04T01:56:33;8.73;;;7.83;;
16975;SDS011;8604;48.148;-1.786;2024-02-04T01:59:03;11.10;;;8.73;;
16975;SDS011;8604;48.148;-1.786;2024-02-04T02:01:32;13.03;;;8.93;;
16975;SDS011;8604;48.148;-1.786;2024-02-04T02:04:03;9.73;;;7.77;;
16975;SDS011;8604;48.148;-1.786;2024-02-04T02:06:33;10.77;;;8.40;;
16975;SDS011;8604;48.148;-1.786;2024-02-04T02:09:09;8.87;;;7.77;;
16975;SDS011;8604;48.148;-1.786;2024-02-04T02:11:40;10.03;;;8.20;;
16975;SDS011;8604;48.148;-1.786;2024-02-04T02:14:11;11.20;;;8.17;;
16975;SDS011;8604;48.148;-1.786;2024-02-04T02:16:44;10.23;;;8.23;;
16975;SDS011;8604;48.148;-1.786;2024-02-04T02:19:17;8.90;;;7.70;;
16975;SDS011;8604;48.148;-1.786;2024-02-04T02:22:00;10.70;;;8.30;;
16975;SDS011;8604;48.148;-1.786;2024-02-04T02:24:35;11.23;;;8.20;;
16975;SDS011;8604;48.148;-1.786;2024-02-04T02:27:07;11.30;;;8.43;;
16975;SDS011;8604;48.148;-1.786;2024-02-04T02:29:36;9.43;;;7.97;;
16975;SDS011;8604;48.148;-1.786;2024-02-04T02:32:04;11.50;;;7.90;;
16975;SDS011;8604;48.148;-1.786;2024-02-04T02:34:33;9.43;;;7.63;;
16975;SDS011;8604;48.148;-1.786;2024-02-04T02:37:08;10.30;;;7.30;;
16975;SDS011;8604;48.148;-1.786;2024-02-04T02:39:48;10.30;;;8.30;;
16975;SDS011;8604;48.148;-1.786;2024-02-04T02:42:22;9.30;;;7.20;;
16975;SDS011;8604;48.148;-1.786;2024-02-04T02:44:54;9.83;;;7.40;;
16975;SDS011;8604;48.148;-1.786;2024-02-04T02:47:23;10.27;;;7.70;;
16975;SDS011;8604;48.148;-1.786;2024-02-04T02:49:53;8.97;;;6.87;;
16975;SDS011;8604;48.148;-1.786;2024-02-04T02:52:22;10.63;;;7.43;;
16975;SDS011;8604;48.148;-1.786;2024-02-04T02:54:52;11.73;;;7.30;;
16975;SDS011;8604;48.148;-1.786;2024-02-04T02:57:20;11.80;;;6.70;;
16975;SDS011;8604;48.148;-1.786;2024-02-04T02:59:49;14.13;;;6.73;;
16975;SDS011;8604;48.148;-1.786;2024-02-04T03:02:17;11.30;;;6.30;;
16975;SDS011;8604;48.148;-1.786;2024-02-04T03:04:45;13.00;;;6.27;;
16975;SDS011;8604;48.148;-1.786;2024-02-04T03:07:14;11.57;;;6.23;;
16975;SDS011;8604;48.148;-1.786;2024-02-04T03:09:42;11.70;;;5.87;;
16975;SDS011;8604;48.148;-1.786;2024-02-04T03:12:12;9.80;;;5.40;;
16975;SDS011;8604;48.148;-1.786;2024-02-04T03:14:41;11.07;;;5.63;;
16975;SDS011;8604;48.148;-1.786;2024-02-04T03:17:10;10.93;;;4.93;;
16975;SDS011;8604;48.148;-1.786;2024-02-04T03:19:40;10.43;;;4.70;;
16975;SDS011;8604;48.148;-1.786;2024-02-04T03:22:08;9.77;;;4.50;;
16975;SDS011;8604;48.148;-1.786;2024-02-04T03:24:36;9.63;;;4.60;;
16975;SDS011;8604;48.148;-1.786;2024-02-04T03:27:05;9.10;;;4.30;;
16975;SDS011;8604;48.148;-1.786;2024-02-04T03:29:35;10.10;;;5.00;;
16975;SDS011;8604;48.148;-1.786;2024-02-04T03:32:04;9.57;;;4.80;;
16975;SDS011;8604;48.148;-1.786;2024-02-04T03:34:32;11.20;;;4.37;;
16975;SDS011;8604;48.148;-1.786;2024-02-04T03:37:03;11.17;;;4.53;;
16975;SDS011;8604;48.148;-1.786;2024-02-04T03:39:32;10.23;;;4.57;;
16975;SDS011;8604;48.148;-1.786;2024-02-04T03:42:00;11.90;;;4.80;;
16975;SDS011;8604;48.148;-1.786;2024-02-04T03:44:28;15.23;;;4.80;;
16975;SDS011;8604;48.148;-1.786;2024-02-04T03:46:58;13.13;;;4.90;;
16975;SDS011;8604;48.148;-1.786;2024-02-04T03:49:29;11.40;;;4.60;;
16975;SDS011;8604;48.148;-1.786;2024-02-04T03:51:58;11.63;;;4.70;;
16975;SDS011;8604;48.148;-1.786;2024-02-04T03:54:26;12.10;;;4.70;;
16975;SDS011;8604;48.148;-1.786;2024-02-04T03:56:55;11.70;;;4.63;;
16975;SDS011;8604;48.148;-1.786;2024-02-04T03:59:23;11.00;;;4.63;;
16975;SDS011;8604;48.148;-1.786;2024-02-04T04:01:51;12.03;;;4.90;;
16975;SDS011;8604;48.148;-1.786;2024-02-04T04:04:23;12.60;;;4.40;;
16975;SDS011;8604;48.148;-1.786;2024-02-04T04:06:53;9.27;;;4.30;;
16975;SDS011;8604;48.148;-1.786;2024-02-04T04:09:21;11.87;;;4.83;;
16975;SDS011;8604;48.148;-1.786;2024-02-04T04:11:50;12.30;;;4.70;;
16975;SDS011;8604;48.148;-1.786;2024-02-04T04:14:18;14.07;;;4.50;;
16975;SDS011;8604;48.148;-1.786;2024-02-04T04:16:46;10.00;;;4.40;;
16975;SDS011;8604;48.148;-1.786;2024-02-04T04:19:15;13.10;;;4.40;;
16975;SDS011;8604;48.148;-1.786;2024-02-04T04:21:45;13.20;;;4.40;;
16975;SDS011;8604;48.148;-1.786;2024-02-04T04:24:13;11.73;;;4.20;;
16975;SDS011;8604;48.148;-1.786;2024-02-04T04:26:42;10.37;;;4.47;;
16975;SDS011;8604;48.148;-1.786;2024-02-04T04:29:10;12.90;;;4.53;;
16975;SDS011;8604;48.148;-1.786;2024-02-04T04:31:39;13.00;;;4.37;;
16975;SDS011;8604;48.148;-1.786;2024-02-04T04:34:07;13.33;;;4.33;;
16975;SDS011;8604;48.148;-1.786;2024-02-04T04:36:36;13.63;;;4.37;;
16975;SDS011;8604;48.148;-1.786;2024-02-04T04:39:05;9.10;;;3.53;;
16975;SDS011;8604;48.148;-1.786;2024-02-04T04:41:34;10.30;;;4.10;;
16975;SDS011;8604;48.148;-1.786;2024-02-04T04:44:03;12.67;;;4.20;;
16975;SDS011;8604;48.148;-1.786;2024-02-04T04:46:32;12.30;;;4.33;;
16975;SDS011;8604;48.148;-1.786;2024-02-04T04:49:00;9.50;;;4.10;;
16975;SDS011;8604;48.148;-1.786;2024-02-04T04:51:28;10.53;;;4.30;;
16975;SDS011;8604;48.148;-1.786;2024-02-04T04:53:57;9.60;;;4.00;;
16975;SDS011;8604;48.148;-1.786;2024-02-04T04:56:27;7.57;;;3.90;;
16975;SDS011;8604;48.148;-1.786;2024-02-04T04:58:55;9.07;;;3.50;;
16975;SDS011;8604;48.148;-1.786;2024-02-04T05:01:23;7.43;;;3.30;;
16975;SDS011;8604;48.148;-1.786;2024-02-04T05:03:52;9.03;;;3.60;;
16975;SDS011;8604;48.148;-1.786;2024-02-04T05:06:20;8.10;;;3.67;;
16975;SDS011;8604;48.148;-1.786;2024-02-04T05:08:49;9.40;;;3.30;;
16975;SDS011;8604;48.148;-1.786;2024-02-04T05:11:17;9.27;;;3.63;;
16975;SDS011;8604;48.148;-1.786;2024-02-04T05:13:47;9.67;;;3.80;;
16975;SDS011;8604;48.148;-1.786;2024-02-04T05:16:15;10.20;;;3.80;;
16975;SDS011;8604;48.148;-1.786;2024-02-04T05:18:44;8.73;;;4.17;;
16975;SDS011;8604;48.148;-1.786;2024-02-04T05:21:12;10.93;;;4.20;;
16975;SDS011;8604;48.148;-1.786;2024-02-04T05:23:40;9.80;;;3.70;;
16975;SDS011;8604;48.148;-1.786;2024-02-04T05:26:09;9.90;;;3.80;;
16975;SDS011;8604;48.148;-1.786;2024-02-04T05:28:37;12.20;;;4.07;;
16975;SDS011;8604;48.148;-1.786;2024-02-04T05:31:07;11.77;;;4.23;;
16975;SDS011;8604;48.148;-1.786;2024-02-04T05:33:35;13.53;;;4.63;;
16975;SDS011;8604;48.148;-1.786;2024-02-04T05:36:04;11.93;;;4.20;;
16975;SDS011;8604;48.148;-1.786;2024-02-04T05:38:32;13.03;;;4.40;;
16975;SDS011;8604;48.148;-1.786;2024-02-04T05:41:01;9.20;;;4.37;;
16975;SDS011;8604;48.148;-1.786;2024-02-04T05:43:29;10.93;;;4.03;;
16975;SDS011;8604;48.148;-1.786;2024-02-04T05:45:57;13.13;;;4.80;;
16975;SDS011;8604;48.148;-1.786;2024-02-04T05:48:27;11.13;;;4.87;;
16975;SDS011;8604;48.148;-1.786;2024-02-04T05:50:56;11.43;;;4.80;;
16975;SDS011;8604;48.148;-1.786;2024-02-04T05:53:24;12.70;;;5.23;;
16975;SDS011;8604;48.148;-1.786;2024-02-04T05:55:52;12.00;;;4.70;;
16975;SDS011;8604;48.148;-1.786;2024-02-04T05:58:21;12.40;;;4.67;;
16975;SDS011;8604;48.148;-1.786;2024-02-04T06:00:49;8.43;;;4.30;;
16975;SDS011;8604;48.148;-1.786;2024-02-04T06:03:17;10.83;;;4.47;;
16975;SDS011;8604;48.148;-1.786;2024-02-04T06:05:47;11.37;;;4.50;;
16975;SDS011;8604;48.148;-1.786;2024-02-04T06:08:16;8.33;;;4.20;;
16975;SDS011;8604;48.148;-1.786;2024-02-04T06:10:44;8.40;;;4.07;;
16975;SDS011;8604;48.148;-1.786;2024-02-04T06:13:12;8.33;;;3.70;;
16975;SDS011;8604;48.148;-1.786;2024-02-04T06:15:41;7.63;;;3.90;;
16975;SDS011;8604;48.148;-1.786;2024-02-04T06:18:10;8.73;;;4.00;;
16975;SDS011;8604;48.148;-1.786;2024-02-04T06:20:38;10.63;;;4.43;;
16975;SDS011;8604;48.148;-1.786;2024-02-04T06:23:08;11.93;;;5.20;;
16975;SDS011;8604;48.148;-1.786;2024-02-04T06:25:36;8.50;;;4.47;;
16975;SDS011;8604;48.148;-1.786;2024-02-04T06:28:05;9.23;;;4.27;;
16975;SDS011;8604;48.148;-1.786;2024-02-04T06:30:33;10.83;;;5.20;;
16975;SDS011;8604;48.148;-1.786;2024-02-04T06:33:02;11.73;;;5.70;;
16975;SDS011;8604;48.148;-1.786;2024-02-04T06:35:31;11.93;;;5.20;;
16975;SDS011;8604;48.148;-1.786;2024-02-04T06:37:59;8.90;;;4.70;;
16975;SDS011;8604;48.148;-1.786;2024-02-04T06:40:29;9.90;;;4.87;;
16975;SDS011;8604;48.148;-1.786;2024-02-04T06:42:57;10.73;;;5.07;;
16975;SDS011;8604;48.148;-1.786;2024-02-04T06:45:26;9.40;;;4.63;;
16975;SDS011;8604;48.148;-1.786;2024-02-04T06:48:01;8.20;;;4.10;;
16975;SDS011;8604;48.148;-1.786;2024-02-04T06:51:04;10.37;;;4.70;;
16975;SDS011;8604;48.148;-1.786;2024-02-04T06:53:37;10.80;;;4.37;;
16975;SDS011;8604;48.148;-1.786;2024-02-04T06:56:14;10.23;;;4.40;;
16975;SDS011;8604;48.148;-1.786;2024-02-04T06:58:54;9.20;;;4.07;;
16975;SDS011;8604;48.148;-1.786;2024-02-04T07:01:27;8.03;;;3.97;;
16975;SDS011;8604;48.148;-1.786;2024-02-04T07:03:58;9.37;;;4.10;;
16975;SDS011;8604;48.148;-1.786;2024-02-04T07:06:32;7.90;;;4.10;;
16975;SDS011;8604;48.148;-1.786;2024-02-04T07:09:25;10.43;;;4.80;;
16975;SDS011;8604;48.148;-1.786;2024-02-04T07:12:02;9.83;;;4.40;;
16975;SDS011;8604;48.148;-1.786;2024-02-04T07:14:39;9.23;;;4.77;;
16975;SDS011;8604;48.148;-1.786;2024-02-04T07:17:08;10.27;;;4.27;;
16975;SDS011;8604;48.148;-1.786;2024-02-04T07:20:03;9.03;;;4.50;;
16975;SDS011;8604;48.148;-1.786;2024-02-04T07:22:39;9.77;;;4.40;;
16975;SDS011;8604;48.148;-1.786;2024-02-04T07:25:32;7.27;;;4.07;;
16975;SDS011;8604;48.148;-1.786;2024-02-04T07:28:16;8.20;;;4.13;;
16975;SDS011;8604;48.148;-1.786;2024-02-04T07:30:52;8.87;;;4.50;;
16975;SDS011;8604;48.148;-1.786;2024-02-04T07:33:35;8.60;;;4.47;;
16975;SDS011;8604;48.148;-1.786;2024-02-04T07:36:10;7.93;;;4.30;;
16975;SDS011;8604;48.148;-1.786;2024-02-04T07:38:55;8.33;;;4.10;;
16975;SDS011;8604;48.148;-1.786;2024-02-04T07:41:26;12.53;;;4.73;;
16975;SDS011;8604;48.148;-1.786;2024-02-04T07:43:58;10.83;;;4.23;;
16975;SDS011;8604;48.148;-1.786;2024-02-04T07:46:27;10.63;;;4.47;;
16975;SDS011;8604;48.148;-1.786;2024-02-04T07:48:58;10.43;;;4.43;;
16975;SDS011;8604;48.148;-1.786;2024-02-04T07:51:26;9.27;;;4.60;;
16975;SDS011;8604;48.148;-1.786;2024-02-04T07:54:10;9.90;;;3.80;;
16975;SDS011;8604;48.148;-1.786;2024-02-04T07:56:38;9.07;;;4.53;;
16975;SDS011;8604;48.148;-1.786;2024-02-04T07:59:08;10.67;;;4.10;;
16975;SDS011;8604;48.148;-1.786;2024-02-04T08:01:36;10.30;;;4.40;;
16975;SDS011;8604;48.148;-1.786;2024-02-04T08:04:05;9.30;;;4.53;;
16975;SDS011;8604;48.148;-1.786;2024-02-04T08:06:35;11.03;;;4.30;;
16975;SDS011;8604;48.148;-1.786;2024-02-04T08:09:18;11.30;;;4.40;;
16975;SDS011;8604;48.148;-1.786;2024-02-04T08:11:47;11.03;;;4.50;;
16975;SDS011;8604;48.148;-1.786;2024-02-04T08:14:35;10.97;;;4.20;;
16975;SDS011;8604;48.148;-1.786;2024-02-04T08:17:03;9.00;;;4.70;;
16975;SDS011;8604;48.148;-1.786;2024-02-04T08:22:51;14.87;;;4.97;;
16975;SDS011;8604;48.148;-1.786;2024-02-04T08:25:19;12.47;;;5.23;;
16975;SDS011;8604;48.148;-1.786;2024-02-04T08:27:48;10.03;;;4.90;;
16975;SDS011;8604;48.148;-1.786;2024-02-04T08:30:18;10.70;;;4.57;;
16975;SDS011;8604;48.148;-1.786;2024-02-04T08:32:47;11.90;;;4.93;;
16975;SDS011;8604;48.148;-1.786;2024-02-04T08:35:15;9.47;;;4.50;;
16975;SDS011;8604;48.148;-1.786;2024-02-04T08:37:44;13.27;;;5.53;;
16975;SDS011;8604;48.148;-1.786;2024-02-04T08:43:07;12.20;;;6.30;;
16975;SDS011;8604;48.148;-1.786;2024-02-04T08:45:36;11.83;;;6.33;;
16975;SDS011;8604;48.148;-1.786;2024-02-04T08:48:05;10.20;;;5.70;;
16975;SDS011;8604;48.148;-1.786;2024-02-04T08:50:34;12.80;;;5.27;;
16975;SDS011;8604;48.148;-1.786;2024-02-04T08:53:02;10.03;;;4.90;;
16975;SDS011;8604;48.148;-1.786;2024-02-04T08:55:31;13.03;;;5.27;;
16975;SDS011;8604;48.148;-1.786;2024-02-04T08:57:59;11.57;;;4.70;;
16975;SDS011;8604;48.148;-1.786;2024-02-04T09:00:28;10.70;;;5.13;;
16975;SDS011;8604;48.148;-1.786;2024-02-04T09:02:58;12.07;;;4.90;;
16975;SDS011;8604;48.148;-1.786;2024-02-04T09:05:26;10.27;;;4.80;;
16975;SDS011;8604;48.148;-1.786;2024-02-04T09:07:55;11.77;;;5.63;;
16975;SDS011;8604;48.148;-1.786;2024-02-04T09:10:23;10.83;;;5.00;;
16975;SDS011;8604;48.148;-1.786;2024-02-04T09:12:52;12.30;;;5.30;;
16975;SDS011;8604;48.148;-1.786;2024-02-04T09:15:29;14.07;;;5.67;;
16975;SDS011;8604;48.148;-1.786;2024-02-04T09:20:54;12.13;;;5.50;;
16975;SDS011;8604;48.148;-1.786;2024-02-04T09:23:22;10.60;;;4.77;;
16975;SDS011;8604;48.148;-1.786;2024-02-04T09:25:51;11.80;;;4.90;;
16975;SDS011;8604;48.148;-1.786;2024-02-04T09:28:19;14.57;;;5.10;;
16975;SDS011;8604;48.148;-1.786;2024-02-04T09:30:52;13.17;;;5.00;;
16975;SDS011;8604;48.148;-1.786;2024-02-04T09:33:43;14.43;;;7.97;;
16975;SDS011;8604;48.148;-1.786;2024-02-04T09:36:15;11.40;;;6.40;;
16975;SDS011;8604;48.148;-1.786;2024-02-04T09:38:44;17.60;;;8.43;;
16975;SDS011;8604;48.148;-1.786;2024-02-04T09:44:38;15.53;;;6.40;;
16975;SDS011;8604;48.148;-1.786;2024-02-04T09:47:07;14.17;;;5.70;;
16975;SDS011;8604;48.148;-1.786;2024-02-04T09:49:37;12.00;;;4.73;;
16975;SDS011;8604;48.148;-1.786;2024-02-04T09:52:09;12.47;;;5.00;;
16975;SDS011;8604;48.148;-1.786;2024-02-04T09:54:38;16.97;;;6.17;;
16975;SDS011;8604;48.148;-1.786;2024-02-04T09:57:12;15.30;;;6.13;;
16975;SDS011;8604;48.148;-1.786;2024-02-04T09:59:43;11.10;;;5.40;;
16975;SDS011;8604;48.148;-1.786;2024-02-04T10:02:13;14.23;;;5.27;;
16975;SDS011;8604;48.148;-1.786;2024-02-04T10:04:48;14.10;;;6.80;;
16975;SDS011;8604;48.148;-1.786;2024-02-04T10:07:17;17.03;;;6.30;;
16975;SDS011;8604;48.148;-1.786;2024-02-04T10:09:46;15.50;;;6.07;;
16975;SDS011;8604;48.148;-1.786;2024-02-04T10:12:15;21.10;;;10.23;;
16975;SDS011;8604;48.148;-1.786;2024-02-04T10:14:58;18.60;;;7.47;;
16975;SDS011;8604;48.148;-1.786;2024-02-04T10:17:38;20.37;;;7.60;;
16975;SDS011;8604;48.148;-1.786;2024-02-04T10:20:27;16.93;;;6.70;;
16975;SDS011;8604;48.148;-1.786;2024-02-04T10:23:01;15.10;;;6.47;;
16975;SDS011;8604;48.148;-1.786;2024-02-04T10:25:29;17.63;;;8.33;;
16975;SDS011;8604;48.148;-1.786;2024-02-04T10:27:58;15.93;;;6.60;;
16975;SDS011;8604;48.148;-1.786;2024-02-04T10:30:27;14.03;;;5.97;;
16975;SDS011;8604;48.148;-1.786;2024-02-04T10:33:35;12.50;;;5.67;;
16975;SDS011;8604;48.148;-1.786;2024-02-04T10:36:06;15.97;;;5.60;;
16975;SDS011;8604;48.148;-1.786;2024-02-04T10:38:35;18.27;;;6.30;;
16975;SDS011;8604;48.148;-1.786;2024-02-04T10:41:03;15.03;;;6.17;;
16975;SDS011;8604;48.148;-1.786;2024-02-04T10:43:34;18.73;;;7.07;;
16975;SDS011;8604;48.148;-1.786;2024-02-04T10:46:05;15.20;;;5.43;;
16975;SDS011;8604;48.148;-1.786;2024-02-04T10:48:37;13.93;;;5.33;;
16975;SDS011;8604;48.148;-1.786;2024-02-04T10:51:13;14.53;;;5.57;;
16975;SDS011;8604;48.148;-1.786;2024-02-04T10:53:44;14.17;;;5.07;;
16975;SDS011;8604;48.148;-1.786;2024-02-04T10:56:17;18.53;;;7.03;;
16975;SDS011;8604;48.148;-1.786;2024-02-04T10:58:50;13.80;;;5.33;;
16975;SDS011;8604;48.148;-1.786;2024-02-04T11:01:22;16.37;;;4.90;;
16975;SDS011;8604;48.148;-1.786;2024-02-04T11:03:51;14.03;;;5.20;;
16975;SDS011;8604;48.148;-1.786;2024-02-04T11:06:22;15.73;;;5.10;;
16975;SDS011;8604;48.148;-1.786;2024-02-04T11:08:51;13.67;;;4.83;;
16975;SDS011;8604;48.148;-1.786;2024-02-04T11:11:22;11.57;;;5.27;;
16975;SDS011;8604;48.148;-1.786;2024-02-04T11:13:54;15.30;;;5.07;;
16975;SDS011;8604;48.148;-1.786;2024-02-04T11:16:33;17.97;;;6.93;;
16975;SDS011;8604;48.148;-1.786;2024-02-04T11:19:20;16.77;;;6.87;;
16975;SDS011;8604;48.148;-1.786;2024-02-04T11:25:16;17.73;;;5.70;;
16975;SDS011;8604;48.148;-1.786;2024-02-04T11:27:54;18.30;;;6.20;;
16975;SDS011;8604;48.148;-1.786;2024-02-04T11:30:26;16.33;;;6.13;;
16975;SDS011;8604;48.148;-1.786;2024-02-04T11:32:56;15.07;;;5.30;;
16975;SDS011;8604;48.148;-1.786;2024-02-04T11:35:28;20.33;;;5.13;;
16975;SDS011;8604;48.148;-1.786;2024-02-04T11:37:56;15.30;;;4.97;;
16975;SDS011;8604;48.148;-1.786;2024-02-04T11:40:31;18.60;;;5.57;;
16975;SDS011;8604;48.148;-1.786;2024-02-04T11:43:05;20.87;;;5.23;;
16975;SDS011;8604;48.148;-1.786;2024-02-04T11:45:37;17.17;;;5.33;;
16975;SDS011;8604;48.148;-1.786;2024-02-04T11:48:06;18.07;;;5.30;;
16975;SDS011;8604;48.148;-1.786;2024-02-04T11:50:37;17.27;;;5.17;;
16975;SDS011;8604;48.148;-1.786;2024-02-04T11:53:13;20.47;;;5.60;;
16975;SDS011;8604;48.148;-1.786;2024-02-04T11:55:46;19.77;;;5.10;;
16975;SDS011;8604;48.148;-1.786;2024-02-04T11:58:19;16.63;;;4.93;;
16975;SDS011;8604;48.148;-1.786;2024-02-04T12:01:03;16.30;;;5.80;;
16975;SDS011;8604;48.148;-1.786;2024-02-04T12:03:32;19.77;;;5.40;;
16975;SDS011;8604;48.148;-1.786;2024-02-04T12:06:02;50.97;;;33.63;;
16975;SDS011;8604;48.148;-1.786;2024-02-04T12:08:36;30.20;;;17.17;;
16975;SDS011;8604;48.148;-1.786;2024-02-04T12:11:08;19.03;;;7.27;;
16975;SDS011;8604;48.148;-1.786;2024-02-04T12:13:36;18.60;;;6.17;;
16975;SDS011;8604;48.148;-1.786;2024-02-04T12:16:08;18.80;;;6.90;;
16975;SDS011;8604;48.148;-1.786;2024-02-04T12:18:47;17.90;;;5.80;;
16975;SDS011;8604;48.148;-1.786;2024-02-04T12:21:23;19.83;;;5.97;;
16975;SDS011;8604;48.148;-1.786;2024-02-04T12:23:52;21.63;;;7.53;;
16975;SDS011;8604;48.148;-1.786;2024-02-04T12:26:22;22.10;;;6.97;;
16975;SDS011;8604;48.148;-1.786;2024-02-04T12:28:51;17.03;;;8.10;;
16975;SDS011;8604;48.148;-1.786;2024-02-04T12:31:19;16.77;;;7.07;;
16975;SDS011;8604;48.148;-1.786;2024-02-04T12:33:52;20.90;;;7.57;;
16975;SDS011;8604;48.148;-1.786;2024-02-04T12:36:25;21.10;;;7.80;;
16975;SDS011;8604;48.148;-1.786;2024-02-04T12:38:55;22.30;;;6.43;;
16975;SDS011;8604;48.148;-1.786;2024-02-04T12:41:25;19.07;;;6.20;;
16975;SDS011;8604;48.148;-1.786;2024-02-04T12:43:56;16.13;;;6.07;;
16975;SDS011;8604;48.148;-1.786;2024-02-04T12:46:26;20.80;;;7.20;;
16975;SDS011;8604;48.148;-1.786;2024-02-04T12:48:55;19.37;;;7.17;;
16975;SDS011;8604;48.148;-1.786;2024-02-04T12:51:33;23.73;;;8.70;;
16975;SDS011;8604;48.148;-1.786;2024-02-04T12:54:04;18.97;;;6.43;;
16975;SDS011;8604;48.148;-1.786;2024-02-04T12:56:42;26.40;;;9.37;;
16975;SDS011;8604;48.148;-1.786;2024-02-04T12:59:22;28.03;;;17.67;;
16975;SDS011;8604;48.148;-1.786;2024-02-04T13:01:55;22.57;;;7.20;;
16975;SDS011;8604;48.148;-1.786;2024-02-04T13:04:33;21.60;;;8.17;;
16975;SDS011;8604;48.148;-1.786;2024-02-04T13:07:06;26.33;;;6.50;;
16975;SDS011;8604;48.148;-1.786;2024-02-04T13:09:38;15.90;;;5.77;;
16975;SDS011;8604;48.148;-1.786;2024-02-04T13:12:14;16.60;;;6.10;;
16975;SDS011;8604;48.148;-1.786;2024-02-04T13:14:43;21.50;;;6.43;;
16975;SDS011;8604;48.148;-1.786;2024-02-04T13:17:13;17.33;;;6.67;;
16975;SDS011;8604;48.148;-1.786;2024-02-04T13:19:42;21.93;;;8.87;;
16975;SDS011;8604;48.148;-1.786;2024-02-04T13:22:11;24.37;;;8.07;;
16975;SDS011;8604;48.148;-1.786;2024-02-04T13:24:41;22.37;;;6.93;;
16975;SDS011;8604;48.148;-1.786;2024-02-04T13:27:09;21.47;;;7.03;;
16975;SDS011;8604;48.148;-1.786;2024-02-04T13:29:39;26.63;;;8.77;;
16975;SDS011;8604;48.148;-1.786;2024-02-04T13:32:07;20.00;;;6.47;;
16975;SDS011;8604;48.148;-1.786;2024-02-04T13:34:36;22.43;;;8.50;;
16975;SDS011;8604;48.148;-1.786;2024-02-04T13:37:05;19.70;;;6.40;;
16975;SDS011;8604;48.148;-1.786;2024-02-04T13:39:33;24.87;;;8.83;;
16975;SDS011;8604;48.148;-1.786;2024-02-04T13:42:02;24.87;;;7.07;;
16975;SDS011;8604;48.148;-1.786;2024-02-04T13:44:32;19.93;;;6.47;;
16975;SDS011;8604;48.148;-1.786;2024-02-04T13:47:01;22.40;;;6.00;;
16975;SDS011;8604;48.148;-1.786;2024-02-04T13:49:29;19.37;;;6.93;;
16975;SDS011;8604;48.148;-1.786;2024-02-04T13:51:58;21.27;;;6.57;;
16975;SDS011;8604;48.148;-1.786;2024-02-04T13:54:26;21.17;;;6.60;;
16975;SDS011;8604;48.148;-1.786;2024-02-04T13:56:55;21.77;;;6.00;;
16975;SDS011;8604;48.148;-1.786;2024-02-04T13:59:23;24.63;;;6.17;;
16975;SDS011;8604;48.148;-1.786;2024-02-04T14:01:53;25.63;;;6.90;;
16975;SDS011;8604;48.148;-1.786;2024-02-04T14:04:27;21.23;;;6.37;;
16975;SDS011;8604;48.148;-1.786;2024-02-04T14:06:55;20.93;;;6.60;;
16975;SDS011;8604;48.148;-1.786;2024-02-04T14:09:24;22.40;;;6.43;;
16975;SDS011;8604;48.148;-1.786;2024-02-04T14:11:52;24.33;;;6.47;;
16975;SDS011;8604;48.148;-1.786;2024-02-04T14:14:22;25.47;;;6.90;;
16975;SDS011;8604;48.148;-1.786;2024-02-04T14:16:52;26.23;;;6.57;;
16975;SDS011;8604;48.148;-1.786;2024-02-04T14:19:22;22.17;;;7.13;;
16975;SDS011;8604;48.148;-1.786;2024-02-04T14:21:50;24.73;;;6.67;;
16975;SDS011;8604;48.148;-1.786;2024-02-04T14:24:19;21.33;;;6.73;;
16975;SDS011;8604;48.148;-1.786;2024-02-04T14:26:47;23.63;;;7.47;;
16975;SDS011;8604;48.148;-1.786;2024-02-04T14:29:16;26.87;;;7.57;;
16975;SDS011;8604;48.148;-1.786;2024-02-04T14:31:44;20.07;;;6.70;;
16975;SDS011;8604;48.148;-1.786;2024-02-04T14:34:14;21.03;;;6.70;;
16975;SDS011;8604;48.148;-1.786;2024-02-04T14:36:42;23.37;;;7.07;;
16975;SDS011;8604;48.148;-1.786;2024-02-04T14:39:11;29.60;;;7.40;;
16975;SDS011;8604;48.148;-1.786;2024-02-04T14:41:39;28.67;;;7.17;;
16975;SDS011;8604;48.148;-1.786;2024-02-04T14:44:08;20.33;;;6.67;;
16975;SDS011;8604;48.148;-1.786;2024-02-04T14:46:36;25.10;;;6.57;;
16975;SDS011;8604;48.148;-1.786;2024-02-04T14:49:05;23.53;;;6.87;;
16975;SDS011;8604;48.148;-1.786;2024-02-04T14:51:39;22.70;;;6.77;;
16975;SDS011;8604;48.148;-1.786;2024-02-04T14:54:17;21.47;;;6.40;;
16975;SDS011;8604;48.148;-1.786;2024-02-04T14:56:48;21.60;;;6.90;;
16975;SDS011;8604;48.148;-1.786;2024-02-04T14:59:18;21.30;;;6.33;;
16975;SDS011;8604;48.148;-1.786;2024-02-04T15:01:49;24.33;;;7.47;;
16975;SDS011;8604;48.148;-1.786;2024-02-04T15:04:18;23.83;;;6.30;;
16975;SDS011;8604;48.148;-1.786;2024-02-04T15:06:48;21.37;;;7.00;;
16975;SDS011;8604;48.148;-1.786;2024-02-04T15:09:33;22.10;;;6.47;;
16975;SDS011;8604;48.148;-1.786;2024-02-04T15:12:02;20.43;;;6.17;;
16975;SDS011;8604;48.148;-1.786;2024-02-04T15:14:31;20.47;;;6.63;;